Record high temperature 35.7°C Record low temperature -13.1°C Record high gust 62.9 km/h Record high average 34.6 km/h Record daily rain 20.2 mm Record low windchill -16.1°C Record high barometer 1041.5 hPa Record low barometer 980.8 hPa
Daily high pressure 1016.9 hPa Daily low pressure 1016.4 hPa Daily low windchill 4.6°C Daily high heat index 6.1°C Daily high gust speed 3.7 kmh N Daily high average speed 1.7 kmh NO
Wetterdaten
LETZTE AKTUALISIERUNG UM: 01:15 DATUM: 21 April 2021, time of next update: 01:30
Aktuelles WetterClear/Night Aktuelle Temperatur 4.6°C (40.3°F), Apparent temp 3.6°C
Höchsttemperatur (seit Mitternacht)6.1°C um: 00:00 Tiefsttemperatur (seit Mitternacht)4.6°C um: 01:14
Windgeschwindigkeit (10 Minuten )0.0 kmh (0.0 kts) Windrichtung (Dir) (10 Minuten )NE (45°)
Windchill Temperatur 4.6°C Windspitzen (letzte Std)3.3 kmh (1.8 kts) um: 00:54
Windspitzen (seit Mitternacht)3.7 kmh (2.0 kts) um: 15:44 Höchstes Windmittel / Minute (seit Mitternacht)1.7 kmh (0.9 kts) um: 00:17
Regenmenge (letzte Std)0.0 mm Regenmenge (seit Mitternacht)0.0 mm (0.00 in.)---
Regenmenge diesen Monat 31.4 mm (1.24 in.) Regenmenge seit Jahresbeginn 129.6 mm (5.10 in.)
Höchste Regenmenge pro Minute (letzte Std)0.0 mm/min Höchste Regenmenge pro Stunde (letzte 6 Std)0.0 mm/stunde
Regenmenge Gestern 0.2 mm Taupunkt 2.5°C (Wet Bulb :3.7°C )
Luftfeuchtigkeit 86 %, Humidex 3.1°C Aktueller Luftdruck (auf Meereshöhe bezogen)1016.8 hPa
Luftdrucktendenz +0.3 hPa (letzte Std) Trend (letzte 1 Std)gleichbleibend
Luftdrucktendenz (letzte 12 Std)-0.6 hPa Luftdrucktendenz (letzte 6 Std)+1.4 hPa
Maximum Soil temperature (seit Mitternacht) 10.6°C Minimum Soil temperature(seit Mitternacht)8.3°C
Current Soil temperature 8°C
Current Solar 0 W/m²
Maximum solar (seit Mitternacht) 0 W/m² Minimum solar(seit Mitternacht)0 W/m²
Current 00:00 hours of sunshine today, current sky: Nicht bestimmbar (Nachtzeit)/Dry/Clear
Sunshine hours for the year: 332:03 hrs Sunshine hours for the month: 181:09 hrs
Current evapotranspiration rate 0.2 mm per day. Yesterday's reading 2.7

Diese Seite wurde mit aktuellen Daten einer DAVIS VP Wetterstation erstellt. Drücken Sie bitte auf "Aktualisieren" oder "neu laden" um die neuesten Daten zu erhalten.


Latest Web Cam Image


Weather report/warning/Metars

Stuttgart-Echterdingen, Germany (EDDS) 48-41N 009-13E 391M
Apr 20, 2021 - 06:50 PM EDT / 2021.04.20 2250 UTC
Wind: Variable at 1 MPH (1 KT):0
Visibility: greater than 7 mile(s):0
Temperature: 41 F (5 C)
Dew Point: 35 F (2 C)
Relative Humidity: 80%
Pressure (altimeter): 30.00 in. Hg (1016 hPa)
ob: EDDS 202250Z VRB01KT CAVOK 05/02 Q1016
cycle: 23
Augsburg, Germany (EDMA) 48-26N 010-56E 463M
Apr 20, 2021 - 06:50 PM EDT / 2021.04.20 2250 UTC
Wind: from the SE (130 degrees) at 2 MPH (2 KT):0
Visibility: greater than 7 mile(s):0
Temperature: 35 F (2 C)
Dew Point: 35 F (2 C)
Relative Humidity: 100%
Pressure (altimeter): 30.00 in. Hg (1016 hPa)
ob: EDMA 202250Z AUTO 13002KT 9999 NCD 02/02 Q1016
cycle: 23
Nuernberg, Germany (EDDN) 49-30N 011-03E 318M
Apr 20, 2021 - 06:50 PM EDT / 2021.04.20 2250 UTC
Wind: Calm:0
Visibility: greater than 7 mile(s):0
Temperature: 46 F (8 C)
Dew Point: 42 F (6 C)
Relative Humidity: 87%
Pressure (altimeter): 30.00 in. Hg (1016 hPa)
ob: EDDN 202250Z 00000KT CAVOK 08/06 Q1016
cycle: 23
Berlin-Tegel, Germany (EDDT) 52-34N 013-19E 37M
Nov 09, 2020 - 01:50 AM EST / 2020.11.09 0650 UTC
Wind: from the E (090 degrees) at 7 MPH (6 KT) (direction variable):0
Visibility: 1 mile(s):0
Sky conditions: overcast
Weather: mist
Temperature: 42 F (6 C)
Dew Point: 41 F (5 C)
Relative Humidity: 93%
Pressure (altimeter): 30.33 in. Hg (1027 hPa)
ob: EDDT 090650Z 09006KT 050V120 3000 BR OVC003 06/05 Q1027
cycle: 7
Friedrichshafen, Germany (EDNY) 47-40N 009-31E 424M
Apr 20, 2021 - 06:50 PM EDT / 2021.04.20 2250 UTC
Wind: from the ENE (060 degrees) at 3 MPH (3 KT) (direction variable):0
Visibility: greater than 7 mile(s):0
Temperature: 41 F (5 C)
Dew Point: 35 F (2 C)
Relative Humidity: 80%
Pressure (altimeter): 29.97 in. Hg (1015 hPa)
ob: EDNY 202250Z AUTO 06003KT 020V090 9999 // NCD 05/02 Q1015
cycle: 23
Hamburg-Finkenwerder, Germany (EDHI) 53-32N 009-50E 13M
Apr 20, 2021 - 06:50 PM EDT / 2021.04.20 2250 UTC
Wind: Variable at 2 MPH (2 KT):0
Visibility: greater than 7 mile(s):0
Temperature: 39 F (4 C)
Dew Point: 32 F (0 C)
Relative Humidity: 75%
Pressure (altimeter): 30.00 in. Hg (1016 hPa)
ob: EDHI 202250Z AUTO VRB02KT 9999 // NCD 04/00 Q1016
cycle: 23
Amsterdam Airport Schiphol, Netherlands (EHAM) 52-18N 004-46E -2M
Apr 20, 2021 - 06:55 PM EDT / 2021.04.20 2255 UTC
Wind: from the N (350 degrees) at 2 MPH (2 KT):0
Visibility: greater than 7 mile(s):0
Temperature: 46 F (8 C)
Dew Point: 41 F (5 C)
Relative Humidity: 81%
Pressure (altimeter): 30.03 in. Hg (1017 hPa)
ob: EHAM 202255Z 35002KT CAVOK 08/05 Q1017 NOSIG
cycle: 23
Stockholm/Skavsta, Sweden (ESKN) 58-47N 016-55E
Apr 20, 2021 - 06:50 PM EDT / 2021.04.20 2250 UTC
Wind: Variable at 2 MPH (2 KT):0
Visibility: greater than 7 mile(s):0
Temperature: 35 F (2 C)
Dew Point: 24 F (-4 C)
Relative Humidity: 64%
Pressure (altimeter): 29.85 in. Hg (1011 hPa)
ob: ESKN 202250Z VRB02KT CAVOK 02/M04 Q1011
cycle: 23
Ramstein, Germany (ETAR) 49-26N 007-36E 237M
Apr 20, 2021 - 06:56 PM EDT / 2021.04.20 2256 UTC
Wind: from the E (080 degrees) at 3 MPH (3 KT):0
Visibility: greater than 7 mile(s):0
Sky conditions: clear
Temperature: 34.5 F (1.4 C)
Dew Point: 34.5 F (1.4 C)
Relative Humidity: 100%
Pressure (altimeter): 30 in. Hg (1015 hPa)
ob: ETAR 202256Z AUTO 08003KT 9999 CLR 01/01 A3000 RMK AO2 SLP167 T00140014 401691019 FZRANO 
cycle: 23
Laupheim, Germany (ETHL) 48-13N 009-55E 550M
Apr 20, 2021 - 06:20 PM EDT / 2021.04.20 2220 UTC
Wind: from the WSW (250 degrees) at 1 MPH (1 KT):0
Visibility: greater than 7 mile(s):0
Temperature: 41 F (5 C)
Dew Point: 35 F (2 C)
Relative Humidity: 80%
Pressure (altimeter): 29.97 in. Hg (1015 hPa)
ob: ETHL 202220Z AUTO 25001KT 9999 // ////// 05/02 Q1015 ///
cycle: 22
Gran Canaria - Canary Islands, Spain (GCLP) 27-56N 015-23W 47M
Apr 20, 2021 - 07:00 PM EDT / 2021.04.20 2300 UTC
Wind: from the N (010 degrees) at 17 MPH (15 KT):0
Visibility: greater than 7 mile(s):0
Sky conditions: partly cloudy
Temperature: 66 F (19 C)
Dew Point: 57 F (14 C)
Relative Humidity: 72%
Pressure (altimeter): 30.06 in. Hg (1018 hPa)
ob: GCLP 202300Z 01015KT 9999 FEW025 SCT030 19/14 Q1018 NOSIG
cycle: 23
Hurguada, Egypt (HEGN) 27-09N 033-43E 14M
Apr 20, 2021 - 06:00 PM EDT / 2021.04.20 2200 UTC
Wind: from the WNW (300 degrees) at 14 MPH (12 KT):0
Visibility: greater than 7 mile(s):0
Temperature: 78 F (26 C)
Dew Point: 46 F (8 C)
Relative Humidity: 31%
Pressure (altimeter): 29.85 in. Hg (1011 hPa)
ob: HEGN 202200Z 30012KT CAVOK 26/08 Q1011 NOSIG
cycle: 22
Chicago / Meigs, IL, United States (KCGX) 41-52N 087-36W
Jun 18, 2008 - 01:45 PM EDT / 2008.06.18 1745 UTC
Wind: from the NW (310 degrees) at 6 MPH (5 KT):0
Visibility: 15 mile(s):0
Sky conditions: overcast
Temperature: 57 F (14 C)
Dew Point: 51 F (11 C)
Relative Humidity: 82%
Pressure (altimeter): 29.89 in. Hg (1012 hPa)
ob: KCGX 181745Z 31005KT 15SM BKN014 OVC030 14/11 A2989
cycle: 18
Paris-Aeroport Charles De Gaulle, France (LFPG) 49-01N 002-32E 109M
Apr 20, 2021 - 07:00 PM EDT / 2021.04.20 2300 UTC
Wind: from the NE (050 degrees) at 8 MPH (7 KT):0
Visibility: greater than 7 mile(s):0
Temperature: 50 F (10 C)
Dew Point: 39 F (4 C)
Relative Humidity: 66%
Pressure (altimeter): 30.00 in. Hg (1016 hPa)
ob: LFPG 202300Z 05007KT CAVOK 10/04 Q1016 NOSIG
cycle: 23
Hyeres, France (LFTH) 43-06N 006-09E 4M
Apr 20, 2021 - 07:00 PM EDT / 2021.04.20 2300 UTC
Wind: Calm:0
Visibility: greater than 7 mile(s):0
Temperature: 51 F (11 C)
Dew Point: 48 F (9 C)
Relative Humidity: 87%
Pressure (altimeter): 30.00 in. Hg (1016 hPa)
ob: LFTH 202300Z AUTO 00000KT CAVOK 11/09 Q1016 NOSIG
cycle: 23



Die Wetterdaten werden alle 2 Minuten gespeichert, aber die Datenübertragung findet jede Minute statt. Die beste Ansicht wird in einer Auflösung von 800 x 600 und "True colour" erzielt. Linie zeigt die relative Luftfeuchtigkeit an.

Drücken Sie bitte auf "Aktualisieren" in Ihrem Browser, um die aktuellsten Daten zu erhalten.

Klicken Sie hier, um eine Übersicht der Durchschnitts- u. Extremwerte für den Monat zu erhalten
Created by "Weather Display" software version 10.37S at this start time/date 19:18:26 18.04.2021